Latest Weather Observations for Cape Sorell

IDT60801

Issued at 2:05 pm EST Saturday 30 August 2014 (issued every 30 minutes, with the page automatically refreshed every 10 minutes)

About weather observations | Map of weather stations | Latest weather observations for TAS | Other Formats
Station Details ID: 097000 Name: CAPE SORELL Lat: -42.20 Lon: 145.17 Height: 19.3 m
Data from the previous 72 hours. | See also: Recent months at Cape Sorell
Date/Time
EST
Temp
°C
App
Temp
°C
Dew
Point
Rel
Hum
%
Delta-T
°C
Wind Press
QNH
hPa
Press
MSL
hPa
Rain
since 9 am
mm
Dir
 
Spd
km/h
Gust
km/h
Spd
kts
Gust
kts
30/02:00pm 15.9 14.4 10.7 71 2.8 SW 9 11 5 6 1023.0 1023.0 0.0
30/01:30pm 15.7 13.7 10.2 70 2.9 WSW 11 13 6 7 1023.5 1023.5 0.0
30/01:00pm 17.9 16.7 10.3 61 4.0 NNW 7 9 4 5 1023.8 1023.8 0.0
30/12:30pm 16.8 14.9 9.2 61 3.9 NW 9 13 5 7 1024.3 1024.3 0.0
30/12:00pm 16.7 14.3 10.1 65 3.5 NW 13 19 7 10 1024.8 1024.8 0.0
30/11:30am 15.9 13.4 9.6 66 3.3 WNW 13 17 7 9 1025.1 1025.1 0.0
30/11:00am 14.9 13.1 7.9 63 3.5 NNE 7 11 4 6 1025.3 1025.3 0.0
30/10:30am 14.4 12.5 7.5 63 3.4 NNE 7 9 4 5 1025.7 1025.7 0.0
30/10:00am 13.9 11.9 7.0 63 3.3 NNE 7 9 4 5 1026.1 1026.1 0.0
30/09:30am 13.0 10.6 7.2 68 2.8 NE 9 11 5 6 1026.5 1026.5 0.0
30/09:00am 12.1 8.6 7.2 72 2.3 NE 15 19 8 10 1026.9 1026.9 0.0
30/08:30am 11.1 7.6 7.2 77 1.9 NE 15 19 8 10 1027.1 1027.1 0.0
30/08:00am 10.7 6.8 7.0 78 1.7 NE 17 20 9 11 1027.3 1027.3 0.0
30/07:30am 10.3 5.9 7.4 82 1.4 NE 20 26 11 14 1027.2 1027.2 0.0
30/07:00am 9.8 6.2 8.2 90 0.8 NE 17 26 9 14 1027.2 1027.2 0.0
30/06:30am 9.3 6.5 8.7 96 0.3 NE 13 22 7 12 1026.9 1026.9 0.0
30/06:00am 8.4 6.2 8.0 97 0.2 ENE 9 13 5 7 1027.0 1027.0 0.0
30/05:30am 8.4 5.0 7.8 96 0.3 E 15 17 8 9 1026.9 1026.9 0.0
30/05:00am 8.9 5.3 8.3 96 0.3 E 17 19 9 10 1026.9 1026.9 0.0
30/04:30am 9.4 7.1 8.9 97 0.2 NE 11 15 6 8 1027.1 1027.1 0.0
30/04:00am 9.2 6.5 8.9 98 0.1 ENE 13 15 7 8 1027.3 1027.3 0.0
30/03:30am 9.1 6.0 8.8 98 0.1 ENE 15 17 8 9 1027.4 1027.4 0.0
30/03:00am 9.1 6.4 8.8 98 0.1 ENE 13 17 7 9 1027.4 1027.4 0.0
30/02:30am 9.0 6.6 8.7 98 0.1 ENE 11 15 6 8 1027.7 1027.7 0.0
30/02:00am 9.4 6.7 9.1 98 0.1 ENE 13 15 7 8 1027.9 1027.9 0.0
30/01:30am 9.5 6.9 9.2 98 0.1 ENE 13 13 7 7 1028.1 1028.1 0.0
30/01:00am 9.3 6.6 8.8 97 0.2 E 13 15 7 8 1028.4 1028.4 0.0
30/12:30am 9.7 7.0 9.1 96 0.3 ENE 13 17 7 9 1028.3 1028.3 0.0
30/12:00am 10.5 8.4 9.9 96 0.3 ENE 11 13 6 7 1028.4 1028.4 0.0
 
Date/Time
EST
Temp
°C
App
Temp
°C
Dew
Point
Rel
Hum
%
Delta-T
°C
Wind Press
QNH
hPa
Press
MSL
hPa
Rain
since 9 am
mm
Dir
 
Spd
km/h
Gust
km/h
Spd
kts
Gust
kts
29/11:30pm 11.7 10.4 11.1 96 0.3 NNE 9 9 5 5 1028.7 1028.7 0.0
29/11:00pm 11.7 10.3 10.9 95 0.4 NNE 9 11 5 6 1028.7 1028.7 0.0
29/10:30pm 11.6 9.4 10.7 94 0.5 NNE 13 17 7 9 1028.7 1028.7 0.0
29/10:00pm 12.3 10.6 11.2 93 0.6 N 11 13 6 7 1028.8 1028.8 0.0
29/09:30pm 12.2 11.2 11.1 93 0.6 NNW 7 11 4 6 1028.8 1028.8 0.0
29/09:00pm 12.2 11.2 10.9 92 0.7 N 7 9 4 5 1028.9 1028.9 0.0
29/08:30pm 11.8 10.8 10.2 90 0.8 NW 6 7 3 4 1028.9 1028.9 0.0
29/08:00pm 12.2 12.4 10.6 90 0.8 CALM 0 0 0 0 1028.7 1028.7 0.0
29/07:30pm 11.9 12.0 10.1 89 0.9 CALM 0 0 0 0 1028.6 1028.6 0.0
29/07:00pm 11.9 12.0 10.0 88 1.0 CALM 0 0 0 0 1028.6 1028.6 0.0
29/06:30pm 11.6 11.5 9.3 86 1.2 CALM 0 0 0 0 1028.5 1028.5 0.0
29/06:00pm 12.6 12.6 9.8 83 1.4 CALM 0 0 0 0 1028.3 1028.3 0.0
29/05:30pm 13.4 13.0 9.8 79 1.8 WNW 2 4 1 2 1028.3 1028.3 0.0
29/05:00pm 13.8 12.7 9.8 77 2.0 W 6 7 3 4 1028.3 1028.3 0.0
29/04:30pm 14.5 13.2 10.1 75 2.3 WSW 7 9 4 5 1028.2 1028.2 0.0
29/04:00pm 15.1 14.0 10.5 74 2.4 W 7 11 4 6 1028.1 1028.1 0.0
29/03:30pm 15.2 13.3 10.6 74 2.4 WSW 11 17 6 9 1028.2 1028.2 0.0
29/03:00pm 15.7 13.5 10.7 72 2.6 W 13 19 7 10 1028.3 1028.3 0.0
29/02:30pm 16.0 13.7 10.3 69 3.0 W 13 17 7 9 1028.3 1028.3 0.0
29/02:00pm 16.6 15.1 10.7 68 3.1 W 9 13 5 7 1028.6 1028.6 0.0
29/01:30pm 16.6 14.9 10.0 65 3.5 NW 9 13 5 7 1028.7 1028.7 0.0
29/01:00pm 16.2 14.6 8.9 62 3.7 NNW 7 11 4 6 1028.8 1028.8 0.0
29/12:30pm 17.1 15.4 9.8 62 3.8 WNW 9 13 5 7 1029.3 1029.3 0.0
29/12:00pm 16.3 15.0 9.9 66 3.3 N 7 9 4 5 1029.5 1029.5 0.0
29/11:30am 16.0 14.6 9.7 66 3.3 N 7 11 4 6 1029.5 1029.5 0.0
29/11:00am 15.2 13.1 9.8 70 2.8 N 11 15 6 8 1029.4 1029.4 0.0
29/10:30am 13.9 10.8 8.9 72 2.5 NNE 15 17 8 9 1029.4 1029.4 0.0
29/10:00am 13.2 9.7 8.7 74 2.2 NNE 17 20 9 11 1029.4 1029.4 0.0
29/09:30am 12.6 9.0 8.5 76 2.0 NE 17 20 9 11 1029.5 1029.5 0.0
29/09:00am 12.4 9.3 8.9 79 1.7 NE 15 20 8 11 1029.4 1029.4 0.0
29/08:30am 11.3 8.5 8.7 84 1.3 ENE 13 17 7 9 1029.2 1029.2 0.0
29/08:00am 10.1 7.1 7.9 86 1.1 ENE 13 17 7 9 1028.9 1028.9 0.0
29/07:30am 9.8 6.4 7.6 86 1.1 ENE 15 19 8 10 1028.8 1028.8 0.0
29/07:00am 10.0 6.5 7.4 84 1.2 NE 15 20 8 11 1028.5 1028.5 0.0
29/06:30am 9.7 6.6 7.1 84 1.2 ENE 13 17 7 9 1028.4 1028.4 0.0
29/06:00am 10.5 7.1 7.6 82 1.4 NE 15 20 8 11 1028.3 1028.3 0.0
29/05:30am 10.9 7.2 8.1 83 1.4 NNE 17 19 9 10 1028.1 1028.1 0.0
29/05:00am 10.7 7.1 8.3 85 1.2 NNE 17 19 9 10 1028.0 1028.0 0.0
29/04:30am 10.4 7.1 8.0 85 1.2 NNE 15 19 8 10 1028.0 1028.0 0.0
29/04:00am 10.5 6.8 7.9 84 1.2 NNE 17 20 9 11 1027.7 1027.7 0.0
29/03:30am 10.6 7.2 7.8 83 1.4 NNE 15 19 8 10 1027.6 1027.6 0.0
29/03:00am 10.8 7.2 8.2 84 1.3 NNE 17 20 9 11 1027.5 1027.5 0.0
29/02:30am 10.7 7.0 8.1 84 1.3 NNE 17 19 9 10 1027.7 1027.7 0.0
29/02:00am 11.2 6.7 8.4 83 1.4 NNE 22 26 12 14 1027.8 1027.8 0.0
29/01:30am 11.3 7.5 8.9 85 1.2 NNE 19 24 10 13 1028.1 1028.1 0.0
29/01:00am 11.7 8.3 9.3 85 1.2 NNE 17 19 9 10 1028.2 1028.2 0.0
29/12:30am 11.8 8.0 9.2 84 1.3 N 19 20 10 11 1028.4 1028.4 0.0
29/12:00am 12.1 8.3 9.7 85 1.2 N 20 24 11 13 1028.2 1028.2 0.0
 
Date/Time
EST
Temp
°C
App
Temp
°C
Dew
Point
Rel
Hum
%
Delta-T
°C
Wind Press
QNH
hPa
Press
MSL
hPa
Rain
since 9 am
mm
Dir
 
Spd
km/h
Gust
km/h
Spd
kts
Gust
kts
28/11:30pm 11.9 8.7 9.8 87 1.1 N 17 20 9 11 1028.2 1028.2 0.0
28/11:00pm 12.0 8.5 10.1 88 1.0 N 19 22 10 12 1028.0 1028.0 0.0
28/10:30pm 12.3 9.2 10.4 88 1.0 N 17 19 9 10 1028.1 1028.1 0.0
28/10:00pm 12.2 9.5 10.4 89 0.9 NNW 15 19 8 10 1028.2 1028.2 0.0
28/09:30pm 12.1 8.9 10.0 87 1.1 N 17 20 9 11 1028.1 1028.1 0.0
28/09:00pm 12.9 9.1 9.9 82 1.5 N 20 24 11 13 1028.0 1028.0 0.0
28/08:30pm 12.8 9.9 9.6 81 1.6 N 15 20 8 11 1028.0 1028.0 0.0
28/08:00pm 12.9 10.1 9.9 82 1.5 NNW 15 19 8 10 1027.9 1027.9 0.0
28/07:30pm 12.9 11.3 10.1 83 1.4 NW 9 13 5 7 1027.8 1027.8 0.0
28/07:00pm 13.2 11.6 10.2 82 1.5 NW 9 15 5 8 1027.8 1027.8 0.0
28/06:30pm 13.2 11.5 10.0 81 1.6 NW 9 11 5 6 1027.7 1027.7 0.0
28/06:00pm 13.2 11.5 9.8 80 1.7 NW 9 11 5 6 1027.4 1027.4 0.0
28/05:30pm 13.3 10.7 9.5 78 1.9 WNW 13 17 7 9 1027.1 1027.1 0.0
28/05:00pm 13.6 10.7 9.5 76 2.1 WNW 15 19 8 10 1027.0 1027.0 0.0
28/04:30pm 13.9 10.6 9.5 75 2.3 W 17 22 9 12 1026.9 1026.9 0.0
28/04:00pm 14.4 11.1 9.4 72 2.5 W 17 22 9 12 1026.5 1026.5 0.0
28/03:30pm 15.3 12.3 9.4 68 3.0 W 15 20 8 11 1026.3 1026.3 0.0
28/03:00pm 15.9 14.7 10.2 69 3.0 W 7 11 4 6 1026.4 1026.4 0.0
28/02:30pm 17.2 16.0 10.3 64 3.7 W 7 11 4 6 1026.5 1026.5 0.0
28/02:00pm 16.4 15.2 10.3 67 3.2 NNW 7 7 4 4 1026.6 1026.6 0.0
28/01:30pm 16.8 14.9 10.6 67 3.3 WNW 11 15 6 8 1026.9 1026.9 0.0
28/01:00pm 17.4 15.8 11.7 69 3.1 NW 11 15 6 8 1027.2 1027.2 0.0
28/12:30pm 16.2 14.4 10.7 70 2.9 NNW 11 17 6 9 1027.7 1027.7 0.0
28/12:00pm 15.7 13.5 10.9 73 2.5 NW 13 17 7 9 1027.9 1027.9 0.0
28/11:30am 15.0 13.5 10.4 74 2.4 NNW 9 13 5 7 1028.3 1028.3 0.0
28/11:00am 15.1 14.1 11.1 77 2.1 N 7 9 4 5 1028.4 1028.4 0.0
28/10:30am 12.6 9.5 8.9 78 1.9 NNE 15 17 8 9 1028.6 1028.6 0.0
28/10:00am 12.3 8.9 9.0 80 1.6 NNE 17 20 9 11 1028.7 1028.7 0.0
28/09:30am 11.9 8.8 8.7 81 1.6 NNE 15 19 8 10 1028.8 1028.8 0.0
28/09:00am 11.5 8.7 8.4 81 1.5 NE 13 17 7 9 1028.8 1028.8 0.0
28/08:30am 10.9 8.0 8.0 82 1.4 NE 13 17 7 9 1028.8 - 0.0
28/08:00am 10.7 8.5 7.8 82 1.4 NE 9 13 5 7 1028.7 1028.7 0.0
28/07:30am 10.8 7.8 7.7 81 1.5 NE 13 17 7 9 1028.4 - 0.0
28/07:00am 11.5 8.2 8.2 80 1.6 NE 15 19 8 10 1028.2 1028.2 0.0
28/06:30am 12.4 8.4 8.1 75 2.1 N 19 22 10 12 1027.8 - 0.0
28/06:00am 12.4 8.4 8.1 75 2.1 N 19 22 10 12 1027.7 1027.7 0.0
28/05:30am 12.2 8.1 8.5 78 1.8 N 20 24 11 13 1027.6 - 0.0
28/05:00am 12.1 8.1 8.9 81 1.6 N 20 26 11 14 1027.7 1027.7 0.0
28/04:30am 12.2 8.3 8.7 79 1.7 N 19 24 10 13 1027.7 - 0.0
28/04:00am 12.3 8.4 8.8 79 1.7 NNW 19 24 10 13 1027.7 1027.7 0.0
28/03:30am 12.3 8.4 8.8 79 1.7 NNW 19 28 10 15 1027.7 - 0.0
28/03:00am 12.0 9.6 8.7 80 1.6 NNW 11 17 6 9 1027.6 1027.6 0.0
28/02:30am 12.2 9.5 8.9 80 1.7 N 13 17 7 9 1027.7 - 0.0
28/02:00am 11.7 11.1 8.9 83 1.4 N 2 6 1 3 1027.9 1027.9 0.0
28/01:30am 11.9 10.6 9.8 87 1.1 N 7 9 4 5 1027.9 - 0.0
28/01:00am 11.9 10.6 10.1 89 0.9 N 7 9 4 5 1028.0 1028.0 0.0
28/12:30am 12.0 10.5 10.4 90 0.8 NNE 9 11 5 6 1027.9 - 0.0
28/12:00am 12.7 9.8 11.1 90 0.8 NE 17 20 9 11 1028.1 1028.1 0.0
 
Date/Time
EST
Temp
°C
App
Temp
°C
Dew
Point
Rel
Hum
%
Delta-T
°C
Wind Press
QNH
hPa
Press
MSL
hPa
Rain
since 9 am
mm
Dir
 
Spd
km/h
Gust
km/h
Spd
kts
Gust
kts
27/11:30pm 12.7 9.2 10.9 89 0.9 NNE 20 24 11 13 1027.8 - 0.0
27/11:00pm 13.0 9.1 8.7 75 2.1 N 19 22 10 12 1028.4 1028.4 0.0
27/10:30pm 12.6 9.8 10.1 85 1.3 NNE 15 19 8 10 1028.6 - 0.0
27/10:00pm 12.4 12.2 10.6 89 0.9 NE 2 6 1 3 1029.0 1029.0 0.0
27/09:30pm 13.2 11.2 11.6 90 0.9 NE 13 19 7 10 1028.4 - 0.0
27/09:00pm 13.2 11.7 11.8 91 0.7 W 11 19 6 10 1028.8 1028.8 0.0
27/08:30pm 13.2 11.3 11.8 91 0.7 W 13 17 7 9 1028.6 - 0.0
27/08:00pm 13.2 11.3 11.8 91 0.7 WSW 13 15 7 8 1028.4 1028.4 0.0
27/07:30pm 13.1 12.3 11.7 91 0.7 SSW 7 9 4 5 1028.1 - 0.0
27/07:00pm 12.9 12.5 11.1 89 0.9 S 4 6 2 3 1027.9 1027.9 0.0
27/06:30pm 13.2 12.9 11.3 88 1.0 SW 4 6 2 3 1027.6 - 0.0
27/06:00pm 13.5 13.6 11.6 88 1.0 W 2 4 1 2 1027.2 1027.2 0.0
27/05:30pm 13.6 13.3 11.3 86 1.2 W 4 6 2 3 1026.9 - 0.0
27/05:00pm 13.8 13.1 11.5 86 1.2 N 6 9 3 5 1026.7 1026.7 0.0
27/04:30pm 14.1 10.7 11.4 84 1.4 N 20 26 11 14 1026.3 - 0.0
27/04:00pm 14.7 12.6 11.1 79 1.9 N 13 19 7 10 1026.4 1026.4 0.0
27/03:30pm 16.1 13.7 11.5 74 2.5 WNW 15 20 8 11 1026.5 - 0.0
27/03:00pm 16.5 15.4 11.9 74 2.5 W 9 15 5 8 1026.5 1026.5 0.0
27/02:30pm 16.3 14.7 11.7 74 2.5 W 11 17 6 9 1026.6 - 0.0

Other Formats:

Comma delimited format used in spreadsheet applications
http://www.bom.gov.au/fwo/IDT60801/IDT60801.94974.axf

JavaScript Object Notation format (JSON) in row-major order
http://www.bom.gov.au/fwo/IDT60801/IDT60801.94974.json